Terminal Aerodrome Forecast
Issued by NWS

Home | Current Version | Previous Version | Text Only | Print | Product List | Glossary On
Versions: 1 2 3 4 5 6 7 8 9 10 11 12 13 14 15 16 17 18 19 20 21 22 23 24 25 26 27 28 29 30
000
FTUS44 KLZK 241132
TAFADF
TAF
KADF 241132Z 2412/2512 00000KT P6SM SCT015
     FM241400 18005KT P6SM SCT015 BKN025
      TEMPO 2417/2421 5SM TSRA BR SCT040 OVC060CB
     FM242100 21006KT P6SM SCT050 BKN250
     FM250100 05003KT P6SM SCT250=

USA.gov is the U.S. government's official web portal to all federal, state and local government web resources and services.